createdAt,value
2018-02-23T07:44:22.208Z,556.00
2018-02-23T07:44:22.776Z,556.00
2018-02-23T07:44:23.286Z,552.00
2018-02-23T07:44:23.838Z,552.00
2018-02-23T07:44:24.327Z,552.00
2018-02-23T07:44:24.856Z,552.00
2018-02-23T07:45:18.830Z,508.00
2018-02-23T07:45:19.337Z,508.00
2018-02-23T07:45:19.846Z,508.00
2018-02-23T07:45:20.415Z,504.00
2018-02-23T07:45:20.939Z,500.00
2018-02-23T07:45:21.463Z,492.00
2018-02-23T07:45:22.043Z,492.00
2018-02-23T07:45:22.585Z,492.00
2018-02-23T07:45:23.108Z,488.00
2018-02-23T07:45:23.625Z,492.00
2018-02-23T07:45:24.135Z,500.00
2018-02-23T07:45:24.677Z,500.00
2018-02-23T07:45:25.226Z,500.00
2018-02-23T07:45:25.789Z,500.00
2018-02-23T07:45:26.325Z,504.00
2018-02-23T07:45:26.907Z,500.00
2018-02-23T07:45:27.441Z,500.00
2018-02-23T07:45:27.959Z,500.00
2018-02-23T07:45:28.525Z,500.00
2018-02-23T07:45:29.067Z,500.00
2018-02-23T07:45:29.593Z,500.00
2018-02-23T07:45:30.113Z,500.00
2018-02-23T07:45:30.665Z,504.00
2018-02-23T07:45:31.187Z,504.00
2018-02-23T07:45:31.707Z,500.00
2018-02-23T07:45:32.257Z,500.00
2018-02-23T07:45:32.773Z,504.00
2018-02-23T07:45:33.287Z,504.00
2018-02-23T07:45:33.871Z,504.00
2018-02-23T07:45:34.390Z,504.00
2018-02-23T07:45:34.913Z,504.00
2018-02-23T07:45:35.481Z,500.00
2018-02-23T07:45:36.005Z,500.00
2018-02-23T07:45:36.607Z,500.00
2018-02-23T07:45:37.136Z,500.00
2018-02-23T07:45:37.657Z,496.00
2018-02-23T07:45:38.165Z,496.00
2018-02-23T07:45:38.773Z,496.00
2018-02-23T07:45:39.265Z,496.00
2018-02-23T07:45:39.805Z,500.00
2018-02-23T07:45:40.325Z,500.00
2018-02-23T07:45:40.851Z,500.00
2018-02-23T07:45:41.397Z,500.00
2018-02-23T07:45:41.918Z,500.00
2018-02-23T07:45:42.459Z,496.00
2018-02-23T07:45:42.977Z,500.00
2018-02-23T07:45:43.555Z,452.00
2018-02-23T07:45:44.067Z,380.00
2018-02-23T07:45:44.585Z,364.00
2018-02-23T07:45:45.112Z,368.00
2018-02-23T07:45:45.623Z,368.00
2018-02-23T07:45:46.178Z,388.00
2018-02-23T07:45:46.749Z,392.00
2018-02-23T07:45:47.275Z,476.00
2018-02-23T07:45:47.812Z,492.00
2018-02-23T07:45:48.325Z,500.00
2018-02-23T07:45:48.863Z,500.00
2018-02-23T07:45:49.373Z,496.00
2018-02-23T07:45:49.909Z,496.00
2018-02-23T07:45:50.444Z,460.00
2018-02-23T07:45:50.959Z,388.00
2018-02-23T07:45:51.467Z,388.00
2018-02-23T07:45:52.018Z,392.00
2018-02-23T07:45:52.526Z,496.00
2018-02-23T07:45:53.031Z,504.00
2018-02-23T07:45:53.546Z,500.00
2018-02-23T07:45:54.158Z,500.00
2018-02-23T07:45:54.649Z,504.00
2018-02-23T07:45:55.168Z,504.00
2018-02-23T07:45:55.699Z,504.00
2018-02-23T07:45:56.219Z,504.00
2018-02-23T07:45:56.744Z,504.00
2018-02-23T07:45:57.252Z,500.00
2018-02-23T07:45:57.793Z,508.00
2018-02-23T07:45:58.343Z,508.00
2018-02-23T07:45:58.907Z,504.00
2018-02-23T07:45:59.451Z,436.00
2018-02-23T07:45:59.997Z,448.00
2018-02-23T07:46:00.520Z,500.00
2018-02-23T07:46:01.064Z,508.00
2018-02-23T07:46:01.626Z,508.00
2018-02-23T07:46:02.183Z,504.00
2018-02-23T07:46:02.699Z,508.00
2018-02-23T07:46:03.228Z,504.00
2018-02-23T07:46:03.781Z,496.00
2018-02-23T07:46:04.373Z,440.00
2018-02-23T07:46:04.896Z,420.00
2018-02-23T07:46:05.435Z,424.00
2018-02-23T07:46:06.017Z,420.00
2018-02-23T07:46:06.595Z,420.00
2018-02-23T07:46:07.117Z,424.00
2018-02-23T07:46:07.639Z,424.00
2018-02-23T07:46:08.203Z,420.00
2018-02-23T07:46:08.707Z,488.00
2018-02-23T07:46:09.231Z,504.00
2018-02-23T07:46:09.791Z,488.00
2018-02-23T07:46:10.341Z,432.00
2018-02-23T08:06:54.473Z,504.00
2018-02-23T08:06:54.982Z,436.00
2018-02-23T08:06:55.502Z,448.00
2018-02-23T08:06:56.020Z,428.00
2018-02-23T08:06:56.546Z,480.00
2018-02-23T08:06:57.056Z,504.00
2018-02-23T08:06:57.578Z,512.00
2018-02-23T08:06:58.094Z,512.00
2018-02-23T08:07:50.613Z,444.00
2018-02-23T08:07:51.091Z,444.00
2018-02-23T08:07:51.660Z,448.00
2018-02-23T08:07:52.165Z,452.00
2018-02-23T08:07:52.726Z,448.00
2018-02-23T08:07:53.279Z,448.00
2018-02-23T08:07:53.821Z,452.00
2018-02-23T08:07:54.407Z,452.00
2018-02-23T08:07:54.973Z,496.00
2018-02-23T08:07:55.482Z,516.00
2018-02-23T08:07:55.984Z,464.00
2018-02-23T08:07:56.462Z,460.00
2018-02-23T08:07:57.057Z,456.00
2018-02-23T08:07:57.604Z,448.00
2018-02-23T08:07:58.117Z,464.00
2018-02-23T08:07:58.633Z,448.00
2018-02-23T08:07:59.141Z,500.00
2018-02-23T08:07:59.663Z,528.00
2018-02-23T08:08:00.219Z,528.00
2018-02-23T08:08:00.749Z,528.00
2018-02-23T08:08:01.323Z,512.00
2018-02-23T08:08:01.902Z,464.00
2018-02-23T08:08:02.433Z,472.00
2018-02-23T08:08:02.973Z,508.00
2018-02-23T08:08:03.467Z,516.00
2018-02-23T08:08:04.051Z,524.00
2018-02-23T08:08:04.599Z,524.00
2018-02-23T08:08:05.169Z,516.00
2018-02-23T08:08:05.691Z,512.00
2018-02-23T08:08:06.199Z,516.00
2018-02-23T08:08:06.723Z,516.00
2018-02-23T08:08:07.241Z,516.00
2018-02-23T08:08:07.831Z,516.00
2018-02-23T08:08:08.322Z,520.00
2018-02-23T08:08:08.843Z,512.00
2018-02-23T08:08:09.357Z,512.00
2018-02-23T08:08:09.869Z,516.00
2018-02-23T08:08:10.391Z,524.00
2018-02-23T08:08:10.919Z,524.00
2018-02-23T08:08:11.455Z,524.00
2018-02-23T08:08:11.974Z,528.00
2018-02-23T08:08:12.493Z,528.00
2018-02-23T08:08:13.133Z,528.00
2018-02-23T08:08:13.523Z,532.00
2018-02-23T08:08:14.044Z,532.00
2018-02-23T08:08:14.557Z,544.00
2018-02-23T08:08:15.071Z,544.00
2018-02-23T08:08:15.653Z,544.00
2018-02-23T08:08:16.161Z,532.00
2018-02-23T08:08:16.709Z,552.00
2018-02-23T08:08:17.210Z,564.00
2018-02-23T08:08:17.747Z,568.00
2018-02-23T08:08:18.273Z,560.00
2018-02-23T08:08:18.799Z,568.00
2018-02-23T08:08:19.333Z,568.00
2018-02-23T08:08:19.852Z,568.00
2018-02-23T08:08:20.372Z,560.00
2018-02-23T08:08:20.891Z,552.00
2018-02-23T08:08:21.413Z,584.00
2018-02-23T08:08:21.968Z,612.00
2018-02-23T08:08:22.562Z,608.00
2018-02-23T08:08:23.031Z,616.00
2018-02-23T08:08:23.579Z,628.00
2018-02-23T08:08:24.126Z,644.00
2018-02-23T08:08:24.687Z,648.00
2018-02-23T08:08:25.203Z,652.00
2018-02-23T08:08:25.736Z,664.00
2018-02-23T08:08:26.247Z,668.00
2018-02-23T08:08:26.793Z,672.00
2018-02-23T08:08:27.299Z,672.00
2018-02-23T08:08:27.821Z,656.00
2018-02-23T08:08:28.355Z,624.00
2018-02-23T08:08:28.879Z,660.00
2018-02-23T08:08:29.390Z,676.00
2018-02-23T08:08:29.954Z,672.00
2018-02-23T08:08:30.465Z,668.00
2018-02-23T08:08:30.966Z,672.00
2018-02-23T08:08:31.477Z,684.00
2018-02-23T08:08:32.054Z,560.00
2018-02-23T08:08:32.559Z,444.00
2018-02-23T08:08:33.069Z,328.00
2018-02-23T08:08:33.598Z,428.00
2018-02-23T08:08:34.109Z,460.00
2018-02-23T08:08:34.647Z,488.00
2018-02-23T08:08:35.197Z,348.00
2018-02-23T08:08:35.743Z,420.00
2018-02-23T08:08:36.302Z,380.00
2018-02-23T08:08:36.730Z,456.00
2018-02-23T08:08:37.269Z,420.00
2018-02-23T08:08:37.803Z,420.00
2018-02-23T08:08:38.358Z,384.00
2018-02-23T08:08:38.891Z,368.00
2018-02-23T08:08:39.399Z,364.00
2018-02-23T08:08:39.939Z,312.00
2018-02-23T08:08:40.449Z,288.00
2018-02-23T08:08:40.973Z,316.00
2018-02-23T08:08:41.493Z,272.00
2018-02-23T08:08:42.054Z,268.00
2018-02-23T08:08:42.591Z,272.00
2018-02-23T08:08:43.165Z,268.00
2018-02-23T08:08:43.713Z,284.00
2018-02-23T08:08:44.285Z,276.00
2018-02-23T08:08:44.859Z,196.00
2018-02-23T08:08:45.400Z,228.00
2018-02-23T08:08:45.978Z,220.00
2018-02-23T08:08:46.489Z,224.00
2018-02-23T08:08:47.028Z,220.00
2018-02-23T08:08:47.593Z,220.00
2018-02-23T08:08:48.115Z,228.00
2018-02-23T08:08:48.645Z,88.00
2018-02-23T08:08:49.163Z,212.00
2018-02-23T08:08:49.729Z,196.00
2018-02-23T08:08:50.249Z,144.00
2018-02-23T08:08:50.770Z,184.00
2018-02-23T08:08:51.365Z,224.00
2018-02-23T08:08:51.898Z,56.00
2018-02-23T08:08:52.435Z,116.00
2018-02-23T08:08:52.956Z,68.00
2018-02-23T08:08:53.471Z,84.00
2018-02-23T08:08:53.989Z,112.00
2018-02-23T08:08:54.509Z,232.00
2018-02-23T08:08:55.039Z,88.00
2018-02-23T08:08:55.558Z,252.00
2018-02-23T08:08:56.115Z,280.00
2018-02-23T08:08:56.690Z,268.00
2018-02-23T08:08:57.233Z,248.00
2018-02-23T08:08:57.753Z,252.00
2018-02-23T08:08:58.268Z,276.00
2018-02-23T08:08:58.853Z,280.00
2018-02-23T08:08:59.404Z,116.00
2018-02-23T08:08:59.989Z,124.00
2018-02-23T08:09:00.493Z,88.00
2018-02-23T08:09:01.009Z,96.00
2018-02-23T08:09:01.531Z,180.00
2018-02-23T08:09:02.055Z,216.00
2018-02-23T08:09:02.623Z,184.00
2018-02-23T08:09:03.141Z,272.00
2018-02-23T08:09:03.728Z,248.00
2018-02-23T08:09:04.236Z,236.00
2018-02-23T08:09:04.759Z,360.00
2018-02-23T08:09:05.321Z,316.00
2018-02-23T08:09:05.899Z,332.00
2018-02-23T08:09:06.411Z,288.00
2018-02-23T08:09:06.963Z,304.00
2018-02-23T08:09:07.505Z,232.00
2018-02-23T08:09:08.059Z,256.00
2018-02-23T08:09:08.608Z,224.00
2018-02-23T08:09:09.187Z,228.00
2018-02-23T08:09:09.723Z,240.00
2018-02-23T08:09:10.277Z,244.00
2018-02-23T08:09:10.855Z,240.00
2018-02-23T08:09:11.390Z,232.00
2018-02-23T08:09:11.941Z,284.00
2018-02-23T08:09:12.449Z,336.00
2018-02-23T08:09:13.005Z,276.00
2018-02-23T08:09:13.504Z,252.00
2018-02-23T08:09:14.039Z,252.00
2018-02-23T08:09:14.619Z,224.00
2018-02-23T08:09:15.163Z,232.00
2018-02-23T08:09:15.723Z,180.00
2018-02-23T08:09:16.229Z,300.00
2018-02-23T08:09:16.767Z,548.00
2018-02-23T08:09:17.311Z,524.00
2018-02-23T08:09:17.890Z,524.00
2018-02-23T08:09:18.399Z,516.00
2018-02-23T08:09:18.953Z,508.00
2018-02-23T08:09:19.469Z,516.00
2018-02-23T08:09:19.991Z,524.00
2018-02-23T08:09:20.522Z,524.00
2018-02-23T08:09:21.101Z,528.00
2018-02-23T08:09:21.645Z,572.00
2018-02-23T08:09:22.219Z,572.00
2018-02-23T08:09:22.737Z,580.00
2018-02-23T08:09:23.291Z,580.00
2018-02-23T08:09:23.868Z,580.00
2018-02-23T08:09:24.451Z,592.00
2018-02-23T08:09:25.014Z,596.00
2018-02-23T08:09:25.538Z,592.00
2018-02-23T08:09:26.129Z,592.00
2018-02-23T08:09:26.683Z,596.00
2018-02-23T08:09:27.235Z,600.00
2018-02-23T08:09:27.809Z,604.00
2018-02-23T08:09:28.320Z,600.00
2018-02-23T08:09:28.851Z,600.00
2018-02-23T08:09:29.391Z,604.00
2018-02-23T08:09:29.968Z,604.00
2018-02-23T08:09:30.509Z,604.00
2018-02-23T08:09:31.103Z,608.00
2018-02-23T08:09:31.645Z,616.00
2018-02-23T08:09:32.194Z,616.00
2018-02-23T08:09:32.789Z,612.00
2018-02-23T08:09:33.319Z,616.00
2018-02-23T08:09:33.834Z,620.00
2018-02-23T08:09:34.361Z,624.00
2018-02-23T08:09:34.881Z,624.00
2018-02-23T08:09:35.397Z,628.00
2018-02-23T08:09:35.965Z,632.00
2018-02-23T08:09:36.532Z,632.00
2018-02-23T08:09:37.094Z,632.00
2018-02-23T08:09:37.609Z,640.00
2018-02-23T08:09:38.203Z,644.00
2018-02-23T08:09:38.779Z,648.00
2018-02-23T08:09:39.322Z,640.00
2018-02-23T08:09:39.901Z,616.00
2018-02-23T08:09:40.410Z,644.00
2018-02-23T08:09:40.936Z,672.00
2018-02-23T08:09:41.497Z,668.00
2018-02-23T08:09:42.051Z,668.00
2018-02-23T08:09:42.597Z,668.00
2018-02-23T08:09:43.175Z,676.00
2018-02-23T08:09:43.721Z,668.00
2018-02-23T08:09:44.289Z,672.00
2018-02-23T08:09:44.828Z,676.00
2018-02-23T08:09:45.336Z,668.00
2018-02-23T08:09:45.912Z,668.00
2018-02-23T08:09:46.956Z,668.00
2018-02-23T08:09:46.989Z,652.00
2018-02-23T08:09:47.504Z,620.00
2018-02-23T08:09:48.049Z,552.00
2018-02-23T08:09:48.608Z,348.00
2018-02-23T08:09:49.163Z,248.00
2018-02-23T08:09:49.718Z,220.00
2018-02-23T08:09:50.265Z,316.00
2018-02-23T08:09:50.727Z,344.00
2018-02-23T08:09:51.265Z,360.00
2018-02-23T08:09:51.799Z,356.00
2018-02-23T08:09:52.361Z,352.00
2018-02-23T08:09:52.928Z,300.00
2018-02-23T08:09:53.451Z,276.00
2018-02-23T08:09:53.971Z,292.00
2018-02-23T08:09:54.511Z,300.00
2018-02-23T08:09:55.091Z,304.00
2018-02-23T08:09:55.651Z,304.00
2018-02-23T08:09:56.169Z,312.00
2018-02-23T08:09:56.707Z,336.00
2018-02-23T08:09:57.214Z,344.00
2018-02-23T08:09:57.743Z,344.00
2018-02-23T08:09:58.275Z,344.00
2018-02-23T08:09:58.861Z,344.00
2018-02-23T08:09:59.389Z,348.00
2018-02-23T08:09:59.913Z,352.00
2018-02-23T08:10:00.421Z,360.00
2018-02-23T08:10:00.940Z,360.00
2018-02-23T08:10:01.473Z,364.00
2018-02-23T08:10:02.056Z,364.00
2018-02-23T08:10:02.569Z,364.00
2018-02-23T08:10:03.079Z,364.00
2018-02-23T08:10:03.590Z,360.00
2018-02-23T08:10:04.118Z,360.00
2018-02-23T08:10:04.644Z,360.00
2018-02-23T08:10:05.157Z,356.00
2018-02-23T08:10:05.729Z,356.00
2018-02-23T08:10:06.268Z,352.00
2018-02-23T08:10:06.869Z,352.00
2018-02-23T08:10:07.360Z,356.00
2018-02-23T08:10:07.879Z,348.00
2018-02-23T08:10:08.441Z,348.00
2018-02-23T08:10:08.965Z,320.00
2018-02-23T08:10:09.578Z,324.00
2018-02-23T08:10:10.093Z,340.00
2018-02-23T08:10:10.650Z,344.00
2018-02-23T08:10:11.239Z,340.00
2018-02-23T08:10:11.812Z,344.00
2018-02-23T08:10:12.357Z,356.00
2018-02-23T08:10:12.871Z,312.00
2018-02-23T08:10:13.395Z,304.00
2018-02-23T08:10:13.919Z,304.00
2018-02-23T08:10:14.434Z,300.00
2018-02-23T08:10:14.959Z,312.00
2018-02-23T08:10:15.489Z,344.00
2018-02-23T08:10:16.060Z,356.00
2018-02-23T08:10:16.608Z,328.00
2018-02-23T08:10:17.154Z,348.00
2018-02-23T08:10:17.679Z,344.00
2018-02-23T08:10:18.189Z,336.00
2018-02-23T08:10:18.761Z,324.00
2018-02-23T08:10:19.321Z,312.00
2018-02-23T08:10:19.893Z,312.00
2018-02-23T08:10:20.409Z,332.00
2018-02-23T08:10:20.944Z,360.00
2018-02-23T08:10:21.471Z,384.00
2018-02-23T08:10:22.049Z,368.00
2018-02-23T08:10:22.603Z,344.00
2018-02-23T08:10:23.135Z,348.00
2018-02-23T08:10:23.735Z,372.00
2018-02-23T08:10:24.267Z,364.00
2018-02-23T08:10:24.794Z,344.00
2018-02-23T08:10:25.311Z,348.00
2018-02-23T08:10:25.882Z,344.00
2018-02-23T08:10:26.440Z,320.00
2018-02-23T08:10:26.959Z,316.00
2018-02-23T08:10:27.491Z,320.00
2018-02-23T08:10:28.049Z,336.00
2018-02-23T08:10:28.594Z,384.00
2018-02-23T08:10:29.171Z,392.00
2018-02-23T08:10:29.691Z,376.00
2018-02-23T08:10:30.220Z,328.00
2018-02-23T08:10:30.767Z,364.00
2018-02-23T08:10:31.311Z,392.00
2018-02-23T08:10:31.905Z,380.00
2018-02-23T08:10:32.418Z,384.00
2018-02-23T08:10:32.975Z,380.00
2018-02-23T08:10:33.441Z,372.00
2018-02-23T08:10:33.965Z,384.00
2018-02-23T08:10:34.519Z,376.00
2018-02-23T08:10:35.121Z,376.00
2018-02-23T08:10:35.641Z,380.00
2018-02-23T08:10:36.167Z,376.00
2018-02-23T08:10:36.694Z,380.00
2018-02-23T08:10:37.199Z,380.00
2018-02-23T08:10:37.731Z,384.00
2018-02-23T08:10:38.252Z,376.00
2018-02-23T08:10:38.773Z,368.00
2018-02-23T08:10:39.307Z,372.00
2018-02-23T08:10:39.822Z,372.00
2018-02-23T08:10:40.333Z,368.00
2018-02-23T08:10:40.852Z,360.00
2018-02-23T08:10:41.392Z,360.00
2018-02-23T08:10:41.992Z,360.00
2018-02-23T08:10:42.513Z,336.00
2018-02-23T08:10:43.097Z,356.00
2018-02-23T08:10:43.627Z,380.00
2018-02-23T08:10:44.141Z,388.00
2018-02-23T08:10:44.719Z,388.00
2018-02-23T08:10:45.218Z,392.00
2018-02-23T08:10:45.728Z,392.00
2018-02-23T08:10:46.268Z,388.00
2018-02-23T08:10:46.881Z,380.00
2018-02-23T08:10:47.361Z,380.00
2018-02-23T08:10:47.883Z,384.00
2018-02-23T08:10:48.443Z,388.00
2018-02-23T08:10:49.017Z,396.00
2018-02-23T08:10:49.521Z,404.00
2018-02-23T08:10:50.038Z,404.00
2018-02-23T08:10:50.624Z,408.00
2018-02-23T08:10:51.162Z,404.00
2018-02-23T08:10:51.714Z,404.00
2018-02-23T08:10:52.279Z,404.00
2018-02-23T08:10:52.851Z,404.00
2018-02-23T08:10:53.388Z,388.00
2018-02-23T08:10:53.959Z,388.00
2018-02-23T08:10:54.477Z,392.00
2018-02-23T08:10:55.005Z,396.00
2018-02-23T08:10:55.517Z,388.00
2018-02-23T08:10:56.079Z,392.00
2018-02-23T08:10:56.549Z,388.00
2018-02-23T08:10:57.079Z,396.00
2018-02-23T08:10:57.597Z,396.00
2018-02-23T08:10:58.143Z,404.00
2018-02-23T08:10:58.681Z,408.00
2018-02-23T08:10:59.252Z,400.00
2018-02-23T08:10:59.833Z,408.00
2018-02-23T08:11:00.337Z,412.00
2018-02-23T08:11:00.863Z,408.00
2018-02-23T08:11:01.403Z,404.00
2018-02-23T08:11:01.977Z,404.00
2018-02-23T08:11:02.512Z,396.00
2018-02-23T08:11:03.033Z,400.00
2018-02-23T08:11:03.639Z,396.00
2018-02-23T08:11:04.209Z,388.00
2018-02-23T08:11:04.784Z,376.00
2018-02-23T08:11:05.337Z,376.00
2018-02-23T08:11:05.863Z,372.00
2018-02-23T08:11:06.385Z,376.00
2018-02-23T08:11:07.037Z,372.00
2018-02-23T08:11:07.559Z,364.00
2018-02-23T08:11:08.129Z,368.00
2018-02-23T08:11:08.653Z,372.00
2018-02-23T08:11:09.191Z,380.00
2018-02-23T08:11:09.719Z,380.00
2018-02-23T08:11:10.273Z,384.00
2018-02-23T08:11:10.819Z,396.00
2018-02-23T08:11:11.324Z,408.00
2018-02-23T08:11:11.843Z,412.00
2018-02-23T08:11:12.351Z,404.00
2018-02-23T08:11:12.939Z,396.00
2018-02-23T08:11:13.472Z,396.00
2018-02-23T08:11:14.059Z,388.00
2018-02-23T08:11:14.612Z,396.00
2018-02-23T08:11:15.125Z,396.00
2018-02-23T08:11:15.700Z,396.00
2018-02-23T08:12:28.708Z,768.00
2018-02-23T08:12:29.209Z,776.00
2018-02-23T08:12:29.716Z,776.00
2018-02-23T08:12:30.305Z,792.00
2018-02-23T08:12:30.859Z,792.00
2018-02-23T08:12:31.424Z,784.00
2018-02-23T08:12:31.986Z,776.00
2018-02-23T08:12:32.495Z,772.00
2018-02-23T08:13:25.497Z,840.00
2018-02-23T08:13:26.026Z,836.00
2018-02-23T08:13:26.548Z,836.00
2018-02-23T08:13:27.067Z,836.00
2018-02-23T08:13:27.611Z,832.00
2018-02-23T08:13:28.106Z,836.00
2018-02-23T08:13:28.664Z,836.00
2018-02-23T08:13:29.241Z,836.00
2018-02-23T08:14:23.190Z,812.00
2018-02-23T08:14:23.755Z,808.00
2018-02-23T08:14:24.240Z,808.00
2018-02-23T08:14:24.771Z,812.00
2018-02-23T08:14:25.302Z,812.00
2018-02-23T08:14:25.818Z,812.00
2018-02-23T08:15:21.319Z,792.00
2018-02-23T08:15:21.373Z,788.00
2018-02-23T08:15:21.881Z,788.00
2018-02-23T08:15:22.463Z,780.00
2018-02-23T08:15:23.081Z,784.00
2018-02-23T08:16:17.012Z,804.00
2018-02-23T08:16:17.569Z,804.00
2018-02-23T08:16:18.107Z,804.00
2018-02-23T08:16:18.624Z,804.00
2018-02-23T08:16:19.155Z,800.00
2018-02-23T08:16:19.646Z,792.00
2018-02-23T08:16:20.128Z,788.00
2018-02-23T08:16:20.665Z,780.00
2018-02-23T08:16:21.178Z,804.00
2018-02-23T08:16:21.714Z,804.00
2018-02-23T08:16:22.216Z,804.00
2018-02-23T08:16:22.731Z,804.00
2018-02-23T08:16:23.244Z,804.00
2018-02-23T08:16:23.759Z,804.00
2018-02-23T08:16:24.308Z,804.00
2018-02-23T08:16:24.824Z,800.00
2018-02-23T08:16:25.342Z,804.00
2018-02-23T08:16:25.851Z,804.00
2018-02-23T08:16:26.372Z,800.00
2018-02-23T08:16:26.862Z,804.00
2018-02-23T08:16:27.375Z,804.00
2018-02-23T08:16:27.868Z,796.00
2018-02-23T08:16:28.380Z,780.00
2018-02-23T08:16:28.930Z,792.00
2018-02-23T08:16:29.496Z,792.00
2018-02-23T08:16:30.006Z,800.00
2018-02-23T08:16:30.528Z,800.00
2018-02-23T08:16:31.054Z,800.00
2018-02-23T08:16:31.572Z,800.00
2018-02-23T08:16:32.101Z,808.00
2018-02-23T08:16:32.611Z,804.00
2018-02-23T08:16:33.128Z,796.00
2018-02-23T08:16:33.660Z,800.00
2018-02-23T08:16:34.138Z,800.00
2018-02-23T08:16:34.663Z,800.00
2018-02-23T08:17:28.365Z,740.00
2018-02-23T08:17:28.922Z,752.00
2018-02-23T08:17:29.396Z,760.00
2018-02-23T08:17:29.928Z,768.00
2018-02-23T09:00:14.979Z,44.00
2018-02-23T09:00:15.491Z,40.00
2018-02-23T09:00:16.004Z,40.00
2018-02-23T09:00:16.536Z,40.00
2018-02-23T09:00:17.040Z,36.00
2018-02-23T09:00:17.568Z,40.00
2018-02-23T09:01:10.595Z,28.00
2018-02-23T09:01:11.102Z,24.00
2018-02-23T09:01:11.624Z,28.00
2018-02-23T09:01:12.142Z,28.00
2018-02-23T09:01:12.663Z,28.00
2018-02-23T09:01:13.243Z,28.00
2018-02-23T09:01:13.761Z,28.00
2018-02-23T09:01:14.285Z,28.00
2018-02-23T09:02:07.263Z,16.00
2018-02-23T09:02:07.773Z,20.00
2018-02-23T09:02:08.283Z,24.00
2018-02-23T09:02:08.823Z,24.00
2018-02-23T09:02:09.336Z,24.00
2018-02-23T09:02:09.851Z,24.00
2018-02-23T09:02:10.420Z,20.00
2018-02-23T09:02:10.989Z,24.00
2018-02-23T09:03:03.450Z,24.00
2018-02-23T09:03:04.013Z,24.00
2018-02-23T09:03:04.539Z,24.00
2018-02-23T09:03:05.058Z,24.00
2018-02-23T09:03:05.586Z,24.00
2018-02-23T09:03:06.094Z,24.00
2018-02-23T09:03:06.664Z,24.00
2018-02-23T09:03:07.200Z,24.00
2018-02-23T09:03:07.774Z,24.00
2018-02-23T09:03:08.283Z,24.00
2018-02-23T09:03:08.805Z,24.00
2018-02-23T09:03:09.310Z,24.00
2018-02-23T09:03:09.862Z,24.00
2018-02-23T09:03:10.410Z,24.00
2018-02-23T09:03:10.944Z,24.00
2018-02-23T09:03:11.454Z,24.00
2018-02-23T09:03:11.976Z,24.00
2018-02-23T09:03:12.492Z,24.00
2018-02-23T09:03:13.014Z,24.00
2018-02-23T09:03:13.527Z,24.00
2018-02-23T09:03:14.070Z,24.00
2018-02-23T09:03:14.610Z,24.00
2018-02-23T09:03:15.110Z,24.00
2018-02-23T09:03:15.637Z,24.00
2018-02-23T09:03:16.168Z,24.00
2018-02-23T09:03:16.674Z,28.00
2018-02-23T09:03:17.201Z,28.00
2018-02-23T09:03:17.803Z,24.00
2018-02-23T09:03:18.329Z,24.00
2018-02-23T09:03:18.910Z,28.00
2018-02-23T09:03:19.426Z,24.00
2018-02-23T09:03:19.944Z,24.00
2018-02-23T09:03:20.448Z,24.00
2018-02-23T09:03:20.972Z,24.00
2018-02-23T09:03:21.526Z,24.00
2018-02-23T09:03:22.040Z,24.00
2018-02-23T09:03:22.570Z,24.00
2018-02-23T09:03:23.128Z,24.00
2018-02-23T09:03:23.666Z,24.00
2018-02-23T09:03:24.184Z,24.00
2018-02-23T09:03:24.742Z,24.00
2018-02-23T09:03:25.287Z,24.00
2018-02-23T09:03:25.866Z,24.00
2018-02-23T09:03:26.381Z,24.00
2018-02-23T09:03:26.899Z,24.00
2018-02-23T09:03:27.440Z,24.00
2018-02-23T09:03:28.038Z,24.00
2018-02-23T09:03:28.587Z,24.00
2018-02-23T09:03:29.100Z,24.00
2018-02-23T09:03:29.620Z,24.00
2018-02-23T09:03:30.167Z,24.00
2018-02-23T09:03:30.702Z,24.00
2018-02-23T09:03:31.202Z,24.00
